createdAt,value
2023-03-25T00:01:17.173Z,88.40
2023-03-25T00:03:51.132Z,89.13
2023-03-25T00:06:18.710Z,90.04
2023-03-25T00:08:46.158Z,89.68
2023-03-25T00:11:13.060Z,90.54
2023-03-25T00:13:41.283Z,91.47
2023-03-25T00:16:10.456Z,91.56
2023-03-25T00:18:38.066Z,92.08
2023-03-25T00:21:11.027Z,92.32
2023-03-25T00:23:40.254Z,92.34
2023-03-25T00:26:08.395Z,92.05
2023-03-25T00:28:37.804Z,92.26
2023-03-25T00:31:12.582Z,91.89
2023-03-25T00:33:41.977Z,92.28
2023-03-25T00:36:10.009Z,92.32
2023-03-25T00:38:38.213Z,92.28
2023-03-25T00:41:25.784Z,91.82
2023-03-25T00:43:56.190Z,92.11
2023-03-25T00:46:26.930Z,91.81
2023-03-25T00:48:54.247Z,91.61
2023-03-25T00:51:22.951Z,91.86
2023-03-25T00:54:00.537Z,91.78
2023-03-25T00:56:28.455Z,90.82
2023-03-25T00:58:56.779Z,91.00
2023-03-25T01:01:27.647Z,91.00
2023-03-25T01:04:00.443Z,91.15
2023-03-25T01:06:36.058Z,91.52
2023-03-25T01:09:06.686Z,91.35
2023-03-25T01:11:35.241Z,91.16
2023-03-25T01:14:05.273Z,90.96
2023-03-25T01:16:32.607Z,90.55
2023-03-25T01:18:59.554Z,91.47
2023-03-25T01:21:26.812Z,92.34
2023-03-25T01:23:53.846Z,92.55
2023-03-25T01:26:21.090Z,92.95
2023-03-25T01:28:48.066Z,93.40
2023-03-25T01:31:16.591Z,93.74
2023-03-25T01:33:43.850Z,94.29
2023-03-25T01:36:13.369Z,95.00
2023-03-25T01:38:41.788Z,93.96
2023-03-25T01:41:10.323Z,93.07
2023-03-25T01:43:37.457Z,91.54
2023-03-25T01:46:04.534Z,90.86
2023-03-25T01:48:41.111Z,91.04
2023-03-25T01:51:18.561Z,91.10
2023-03-25T01:53:46.022Z,92.06
2023-03-25T01:56:19.048Z,91.37
2023-03-25T01:58:46.113Z,91.77
2023-03-25T02:01:14.591Z,91.13
2023-03-25T02:03:46.747Z,91.13
2023-03-25T02:06:23.052Z,91.89
2023-03-25T02:08:53.081Z,92.23
2023-03-25T02:11:20.036Z,92.02
2023-03-25T02:13:47.174Z,92.40
2023-03-25T02:16:51.950Z,92.63
2023-03-25T02:20:16.410Z,92.58
2023-03-25T02:22:47.901Z,91.97
2023-03-25T02:25:50.250Z,92.41
2023-03-25T02:28:47.495Z,92.23
2023-03-25T02:31:39.241Z,91.88
2023-03-25T02:34:30.183Z,91.25
2023-03-25T02:37:34.628Z,91.47
2023-03-25T02:40:16.829Z,91.83
2023-03-25T02:42:53.774Z,92.15
2023-03-25T02:45:32.657Z,91.83
2023-03-25T02:48:06.758Z,91.70
2023-03-25T02:50:41.944Z,91.73
2023-03-25T02:53:15.947Z,91.46
2023-03-25T02:55:45.680Z,91.45
2023-03-25T02:58:18.302Z,91.57
2023-03-25T03:00:46.524Z,91.47
2023-03-25T03:03:13.727Z,91.97
2023-03-25T03:05:45.200Z,91.31
2023-03-25T03:08:52.224Z,91.60
2023-03-25T03:11:51.861Z,91.45
2023-03-25T03:14:43.364Z,91.63
2023-03-25T03:17:44.612Z,91.70
2023-03-25T03:20:20.540Z,92.18
2023-03-25T03:23:03.030Z,91.96
2023-03-25T03:25:49.751Z,91.90
2023-03-25T03:28:48.259Z,92.33
2023-03-25T03:31:48.722Z,92.04
2023-03-25T03:34:47.335Z,92.30
2023-03-25T03:37:19.984Z,92.27
2023-03-25T03:39:49.443Z,92.67
2023-03-25T03:42:26.367Z,92.46
2023-03-25T03:45:02.075Z,92.58
2023-03-25T03:47:35.699Z,93.93
2023-03-25T03:50:15.673Z,94.25
2023-03-25T03:53:22.899Z,94.67
2023-03-25T03:56:22.559Z,94.80
2023-03-25T03:58:58.719Z,95.28
2023-03-25T04:02:01.114Z,96.39
2023-03-25T04:04:28.544Z,96.33
2023-03-25T04:07:18.768Z,96.49
2023-03-25T04:10:03.069Z,97.03
2023-03-25T04:12:38.669Z,96.49
2023-03-25T04:15:07.432Z,97.00
2023-03-25T04:17:35.089Z,97.25
2023-03-25T04:20:09.237Z,96.86
2023-03-25T04:22:38.864Z,97.08
2023-03-25T04:25:07.543Z,97.25
2023-03-25T04:27:38.031Z,97.28
2023-03-25T04:30:09.488Z,97.49
2023-03-25T04:32:36.513Z,97.49
2023-03-25T04:35:03.927Z,96.98
2023-03-25T04:37:34.423Z,96.60
2023-03-25T04:40:01.450Z,96.55
2023-03-25T04:42:33.339Z,96.67
2023-03-25T04:45:00.697Z,96.71
2023-03-25T04:47:28.300Z,96.97
2023-03-25T04:49:55.281Z,96.60
2023-03-25T04:52:22.608Z,97.08
2023-03-25T04:54:49.526Z,96.78
2023-03-25T04:57:16.899Z,96.54
2023-03-25T04:59:44.267Z,96.83
2023-03-25T05:02:13.789Z,96.61
2023-03-25T05:04:47.930Z,97.03
2023-03-25T05:07:16.772Z,97.08
2023-03-25T05:09:43.943Z,96.98
2023-03-25T05:12:11.718Z,98.48
2023-03-25T05:14:39.075Z,98.07
2023-03-25T05:17:06.041Z,97.72
2023-03-25T05:19:35.404Z,97.63
2023-03-25T05:22:04.846Z,97.92
2023-03-25T05:24:31.891Z,98.68
2023-03-25T05:27:02.697Z,98.54
2023-03-25T05:29:34.283Z,98.82
2023-03-25T05:32:01.329Z,99.29
2023-03-25T05:34:30.360Z,99.56
2023-03-25T05:36:57.628Z,99.61
2023-03-25T05:39:24.649Z,98.97
2023-03-25T05:41:55.865Z,99.18
2023-03-25T05:44:23.103Z,98.80
2023-03-25T05:46:50.000Z,98.82
2023-03-25T05:49:17.331Z,98.65
2023-03-25T05:51:45.295Z,98.96
2023-03-25T05:54:12.325Z,98.37
2023-03-25T05:56:40.238Z,98.22
2023-03-25T05:59:08.639Z,97.82
2023-03-25T06:01:38.026Z,97.79
2023-03-25T06:04:05.555Z,98.01
2023-03-25T06:06:34.580Z,98.02
2023-03-25T06:09:03.043Z,97.97
2023-03-25T06:11:30.427Z,97.64
2023-03-25T06:13:57.620Z,97.81
2023-03-25T06:16:30.302Z,97.83
2023-03-25T06:19:01.714Z,97.70
2023-03-25T06:21:33.346Z,97.86
2023-03-25T06:24:04.455Z,98.36
2023-03-25T06:26:33.029Z,99.72
2023-03-25T06:29:00.164Z,100.00
2023-03-25T06:31:27.698Z,100.00
2023-03-25T06:33:56.478Z,100.00
2023-03-25T06:36:25.783Z,100.00
2023-03-25T06:38:53.883Z,100.00
2023-03-25T06:41:22.067Z,100.00
2023-03-25T06:43:49.861Z,100.00
2023-03-25T06:46:17.107Z,100.00
2023-03-25T06:48:44.296Z,100.00
2023-03-25T06:51:11.290Z,100.00
2023-03-25T06:53:38.540Z,100.00
2023-03-25T06:56:06.549Z,100.00
2023-03-25T06:58:36.186Z,100.00
2023-03-25T07:01:07.821Z,100.00
2023-03-25T07:03:37.072Z,100.00
2023-03-25T07:06:06.036Z,100.00
2023-03-25T07:08:34.015Z,100.00
2023-03-25T07:11:07.635Z,100.00
2023-03-25T07:13:35.920Z,100.00
2023-03-25T07:16:03.473Z,100.00
2023-03-25T07:18:31.106Z,100.00
2023-03-25T07:20:59.016Z,100.00
2023-03-25T07:23:26.372Z,100.00
2023-03-25T07:25:53.684Z,100.00
2023-03-25T07:28:20.931Z,100.00
2023-03-25T07:30:48.033Z,100.00
2023-03-25T07:33:15.662Z,100.00
2023-03-25T07:35:42.624Z,100.00
2023-03-25T07:38:10.269Z,100.00
2023-03-25T07:40:37.942Z,100.00
2023-03-25T07:43:05.495Z,99.05
2023-03-25T07:45:43.979Z,99.33
2023-03-25T07:48:19.451Z,98.39
2023-03-25T07:50:46.460Z,98.64
2023-03-25T07:53:13.380Z,98.83
2023-03-25T07:55:40.418Z,98.81
2023-03-25T07:58:07.574Z,99.08
2023-03-25T08:00:34.560Z,98.46
2023-03-25T08:03:01.718Z,98.36
2023-03-25T08:05:29.152Z,98.03
2023-03-25T08:07:56.195Z,97.39
2023-03-25T08:10:23.401Z,96.52
2023-03-25T08:12:53.638Z,96.91
2023-03-25T08:15:24.672Z,97.00
2023-03-25T08:17:52.676Z,96.95
2023-03-25T08:20:19.960Z,96.76
2023-03-25T08:22:47.691Z,97.34
2023-03-25T08:25:14.894Z,97.53
2023-03-25T08:27:42.089Z,97.43
2023-03-25T08:30:10.628Z,97.90
2023-03-25T08:32:39.171Z,97.76
2023-03-25T08:35:07.309Z,97.74
2023-03-25T08:37:38.054Z,97.58
2023-03-25T08:40:10.238Z,97.25
2023-03-25T08:42:38.577Z,97.32
2023-03-25T08:45:09.364Z,96.60
2023-03-25T08:47:36.414Z,96.57
2023-03-25T08:50:04.231Z,95.86
2023-03-25T08:52:31.546Z,96.24
2023-03-25T08:54:58.489Z,95.57
2023-03-25T08:57:26.162Z,94.42
2023-03-25T08:59:53.321Z,93.97
2023-03-25T09:02:20.737Z,93.52
2023-03-25T09:04:50.860Z,92.83
2023-03-25T09:07:20.095Z,92.53
2023-03-25T09:09:47.370Z,92.10
2023-03-25T09:12:14.383Z,91.80
2023-03-25T09:14:41.391Z,89.69
2023-03-25T09:17:10.319Z,88.99
2023-03-25T09:19:38.363Z,88.09
2023-03-25T09:22:06.638Z,86.45
2023-03-25T09:24:34.487Z,86.47
2023-03-25T09:27:02.925Z,85.10
2023-03-25T09:29:30.000Z,84.17
2023-03-25T09:31:58.588Z,84.53
2023-03-25T09:34:27.249Z,83.59
2023-03-25T09:36:55.632Z,82.57
2023-03-25T09:39:22.848Z,81.50
2023-03-25T09:42:14.369Z,83.17
2023-03-25T09:44:56.769Z,82.08
2023-03-25T09:47:26.170Z,81.35
2023-03-25T09:50:01.322Z,79.71
2023-03-25T09:52:37.135Z,79.73
2023-03-25T09:55:11.782Z,78.76
2023-03-25T09:57:49.358Z,78.04
2023-03-25T10:00:24.906Z,76.91
2023-03-25T10:03:22.204Z,75.78
2023-03-25T10:06:06.748Z,73.70
2023-03-25T10:08:53.088Z,74.06
2023-03-25T10:11:26.033Z,73.84
2023-03-25T10:14:24.742Z,72.34
2023-03-25T10:17:16.117Z,72.49
2023-03-25T10:20:11.814Z,71.15
2023-03-25T10:23:03.124Z,71.36
2023-03-25T10:25:35.128Z,71.63
2023-03-25T10:28:03.695Z,71.97
2023-03-25T10:30:44.462Z,70.93
2023-03-25T10:33:31.792Z,70.54
2023-03-25T10:36:02.065Z,70.47
2023-03-25T10:38:32.577Z,70.47
2023-03-25T10:41:31.698Z,70.94
2023-03-25T10:43:58.756Z,71.63
2023-03-25T10:46:37.592Z,70.23
2023-03-25T10:49:04.812Z,70.40
2023-03-25T10:51:36.468Z,69.82
2023-03-25T10:54:04.420Z,70.92
2023-03-25T10:56:52.280Z,69.97
2023-03-25T10:59:37.816Z,70.85
2023-03-25T11:02:17.853Z,68.66
2023-03-25T11:04:49.203Z,68.31
2023-03-25T11:07:22.627Z,68.15
2023-03-25T11:09:52.004Z,69.25
2023-03-25T11:12:33.277Z,68.57
2023-03-25T11:15:06.996Z,66.55
2023-03-25T11:17:34.707Z,67.67
2023-03-25T11:20:11.285Z,67.61
2023-03-25T11:22:39.096Z,68.70
2023-03-25T11:25:30.198Z,68.52
2023-03-25T11:28:02.812Z,66.03
2023-03-25T11:30:29.746Z,66.53
2023-03-25T11:33:13.361Z,68.22
2023-03-25T11:35:46.960Z,70.67
2023-03-25T11:38:23.432Z,72.63
2023-03-25T11:40:55.506Z,77.54
2023-03-25T11:43:25.975Z,79.41
2023-03-25T11:45:53.911Z,80.69
2023-03-25T11:48:24.638Z,83.74
2023-03-25T11:51:02.413Z,84.66
2023-03-25T11:53:32.965Z,85.44
2023-03-25T11:56:04.971Z,85.64
2023-03-25T11:58:37.264Z,87.13
2023-03-25T12:01:22.846Z,89.73
2023-03-25T12:03:49.887Z,91.45
2023-03-25T12:06:21.924Z,91.10
2023-03-25T12:08:59.619Z,89.28
2023-03-25T12:11:33.225Z,88.94
2023-03-25T12:14:40.170Z,88.29
2023-03-25T12:18:11.867Z,87.24
2023-03-25T12:21:20.451Z,87.01
2023-03-25T12:24:15.941Z,85.82
2023-03-25T12:26:51.980Z,84.97
2023-03-25T12:29:54.817Z,84.97
2023-03-25T12:32:42.045Z,84.26
2023-03-25T12:35:22.854Z,81.13
2023-03-25T12:38:24.571Z,82.66
2023-03-25T12:41:07.974Z,80.95
2023-03-25T12:43:59.287Z,79.17
2023-03-25T12:46:47.534Z,78.35
2023-03-25T12:49:43.060Z,77.96
2023-03-25T12:52:28.956Z,75.67
2023-03-25T12:55:23.750Z,74.36
2023-03-25T12:58:20.071Z,73.79
2023-03-25T13:01:30.467Z,72.71
2023-03-25T13:04:34.960Z,72.27
2023-03-25T13:07:17.363Z,72.11
2023-03-25T13:09:52.448Z,71.61
2023-03-25T13:12:42.979Z,72.56
2023-03-25T13:15:37.508Z,73.46
2023-03-25T13:18:21.246Z,72.57
2023-03-25T13:21:00.518Z,71.80
2023-03-25T13:23:29.879Z,71.37
2023-03-25T13:26:06.688Z,68.83
2023-03-25T13:28:41.783Z,68.78
2023-03-25T13:31:15.802Z,66.27
2023-03-25T13:33:49.312Z,65.87
2023-03-25T13:36:38.379Z,64.99
2023-03-25T13:39:19.452Z,64.75
2023-03-25T13:42:11.412Z,64.72
2023-03-25T13:44:41.790Z,63.49
2023-03-25T13:47:26.456Z,63.61
2023-03-25T13:50:02.983Z,62.38
2023-03-25T13:52:39.851Z,63.51
2023-03-25T13:55:22.359Z,62.69
2023-03-25T13:58:14.522Z,61.48
2023-03-25T14:01:02.405Z,61.04
2023-03-25T14:03:47.626Z,63.78
2023-03-25T14:07:21.477Z,64.25
2023-03-25T14:10:25.868Z,63.69
2023-03-25T14:13:49.371Z,63.58
2023-03-25T14:16:23.081Z,62.69
2023-03-25T14:19:00.840Z,63.64
2023-03-25T14:21:50.813Z,63.18
2023-03-25T14:24:32.302Z,63.02
2023-03-25T14:27:31.514Z,62.48
2023-03-25T14:30:06.371Z,62.75
2023-03-25T14:32:41.995Z,62.77
2023-03-25T14:35:34.599Z,62.71
2023-03-25T14:38:08.086Z,63.39
2023-03-25T14:40:59.501Z,62.80
2023-03-25T14:43:47.903Z,60.77
2023-03-25T14:46:22.102Z,59.96
2023-03-25T14:48:50.369Z,60.27
2023-03-25T14:51:26.492Z,59.22
2023-03-25T14:54:17.078Z,58.25
2023-03-25T14:57:04.616Z,57.09
2023-03-25T14:59:39.859Z,57.01
2023-03-25T15:02:29.892Z,57.62
2023-03-25T15:05:02.464Z,57.07
2023-03-25T15:07:50.729Z,58.28
2023-03-25T15:10:36.852Z,58.13
2023-03-25T15:13:09.516Z,57.49
2023-03-25T15:15:45.709Z,56.81
2023-03-25T15:18:36.488Z,54.54
2023-03-25T15:21:14.429Z,55.27
2023-03-25T15:23:52.108Z,55.86
2023-03-25T15:26:42.436Z,55.62
2023-03-25T15:29:27.612Z,54.93
2023-03-25T15:32:31.566Z,55.31
2023-03-25T15:35:32.507Z,54.52
2023-03-25T15:38:28.659Z,54.86
2023-03-25T15:41:56.156Z,55.46
2023-03-25T15:45:00.742Z,56.19
2023-03-25T15:47:43.031Z,56.43
2023-03-25T15:50:28.899Z,55.85
2023-03-25T15:53:41.896Z,55.95
2023-03-25T15:56:17.729Z,54.60
2023-03-25T15:59:05.881Z,55.20
2023-03-25T16:01:36.271Z,56.36
2023-03-25T16:04:34.987Z,56.16
2023-03-25T16:07:06.014Z,56.52
2023-03-25T16:09:39.207Z,56.21
2023-03-25T16:12:10.621Z,56.22
2023-03-25T16:14:39.581Z,57.51
2023-03-25T16:17:09.080Z,57.93
2023-03-25T16:19:45.961Z,58.36
2023-03-25T16:22:27.850Z,58.70
2023-03-25T16:24:58.144Z,59.07
2023-03-25T16:27:52.965Z,60.06
2023-03-25T16:30:24.847Z,59.22
2023-03-25T16:32:52.655Z,59.49
2023-03-25T16:35:27.342Z,59.59
2023-03-25T16:37:58.643Z,59.44
2023-03-25T16:40:33.796Z,59.74
2023-03-25T16:43:12.325Z,59.69
2023-03-25T16:45:40.586Z,59.87
2023-03-25T16:48:19.980Z,59.99
2023-03-25T16:50:46.973Z,60.39
2023-03-25T16:53:16.748Z,60.54
2023-03-25T16:55:57.893Z,61.18
2023-03-25T16:58:28.069Z,61.30
2023-03-25T17:00:56.890Z,61.33
2023-03-25T17:03:48.724Z,61.55
2023-03-25T17:06:28.729Z,59.77
2023-03-25T17:08:59.167Z,60.05
2023-03-25T17:11:32.596Z,59.09
2023-03-25T17:14:08.803Z,59.48
2023-03-25T17:16:38.341Z,59.63
2023-03-25T17:19:05.557Z,59.90
2023-03-25T17:21:35.344Z,60.10
2023-03-25T17:24:20.884Z,60.63
2023-03-25T17:27:05.809Z,61.23
2023-03-25T17:29:33.082Z,60.96
2023-03-25T17:32:00.446Z,61.42
2023-03-25T17:34:28.070Z,62.11
2023-03-25T17:37:01.426Z,62.83
2023-03-25T17:39:32.616Z,62.91
2023-03-25T17:42:07.325Z,63.58
2023-03-25T17:44:37.678Z,63.52
2023-03-25T17:47:06.429Z,63.95
2023-03-25T17:49:34.285Z,64.20
2023-03-25T17:52:01.544Z,64.12
2023-03-25T17:54:28.842Z,63.95
2023-03-25T17:56:56.608Z,64.24
2023-03-25T17:59:28.279Z,64.68
2023-03-25T18:01:55.331Z,64.62
2023-03-25T18:04:23.153Z,64.83
2023-03-25T18:06:51.741Z,64.69
2023-03-25T18:09:25.832Z,64.56
2023-03-25T18:11:56.566Z,64.73
2023-03-25T18:14:25.528Z,65.21
2023-03-25T18:16:57.772Z,65.19
2023-03-25T18:19:31.946Z,65.69
2023-03-25T18:22:09.811Z,65.75
2023-03-25T18:24:50.145Z,66.04
2023-03-25T18:27:17.945Z,66.51
2023-03-25T18:29:45.021Z,66.73
2023-03-25T18:32:12.023Z,67.38
2023-03-25T18:34:39.068Z,67.29
2023-03-25T18:37:05.953Z,67.60
2023-03-25T18:39:33.019Z,67.98
2023-03-25T18:42:00.323Z,68.02
2023-03-25T18:44:28.723Z,68.71
2023-03-25T18:46:55.889Z,68.81
2023-03-25T18:49:23.142Z,69.29
2023-03-25T18:51:51.102Z,69.98
2023-03-25T18:54:18.389Z,69.86
2023-03-25T18:56:46.105Z,70.32
2023-03-25T18:59:22.187Z,70.72
2023-03-25T19:01:49.134Z,71.08
2023-03-25T19:04:16.590Z,71.66
2023-03-25T19:06:44.234Z,72.07
2023-03-25T19:09:22.937Z,72.99
2023-03-25T19:11:49.958Z,73.96
2023-03-25T19:14:16.843Z,73.90
2023-03-25T19:16:57.296Z,74.84
2023-03-25T19:19:28.944Z,75.71
2023-03-25T19:21:55.869Z,76.20
2023-03-25T19:24:23.131Z,75.93
2023-03-25T19:26:50.064Z,76.50
2023-03-25T19:29:16.986Z,77.26
2023-03-25T19:31:44.303Z,77.77
2023-03-25T19:34:11.323Z,76.96
2023-03-25T19:36:38.317Z,78.29
2023-03-25T19:39:06.124Z,77.73
2023-03-25T19:41:35.251Z,78.11
2023-03-25T19:44:02.237Z,78.58
2023-03-25T19:46:31.972Z,78.99
2023-03-25T19:48:58.919Z,79.05
2023-03-25T19:51:25.817Z,79.14
2023-03-25T19:53:52.756Z,78.63
2023-03-25T19:56:19.614Z,79.70
2023-03-25T19:58:46.966Z,79.85
2023-03-25T20:01:13.932Z,79.39
2023-03-25T20:03:41.541Z,79.91
2023-03-25T20:06:09.350Z,79.71
2023-03-25T20:08:36.824Z,80.05
2023-03-25T20:11:12.378Z,79.75
2023-03-25T20:13:39.852Z,79.76
2023-03-25T20:16:07.756Z,79.75
2023-03-25T20:18:34.889Z,80.15
2023-03-25T20:21:01.826Z,80.38
2023-03-25T20:23:28.765Z,81.50
2023-03-25T20:25:55.701Z,81.10
2023-03-25T20:28:23.147Z,81.79
2023-03-25T20:30:50.257Z,81.61
2023-03-25T20:33:17.575Z,81.42
2023-03-25T20:35:45.338Z,81.57
2023-03-25T20:38:12.885Z,81.77
2023-03-25T20:40:44.707Z,81.27
2023-03-25T20:43:14.947Z,81.23
2023-03-25T20:45:43.293Z,81.44
2023-03-25T20:48:10.409Z,81.29
2023-03-25T20:50:37.444Z,81.49
2023-03-25T20:53:05.988Z,81.78
2023-03-25T20:55:33.217Z,81.22
2023-03-25T20:58:01.058Z,81.20
2023-03-25T21:00:28.112Z,81.64
2023-03-25T21:02:56.090Z,82.32
2023-03-25T21:05:23.394Z,82.03
2023-03-25T21:07:51.571Z,81.47
2023-03-25T21:10:20.518Z,82.54
2023-03-25T21:12:48.512Z,83.04
2023-03-25T21:15:16.058Z,82.24
2023-03-25T21:17:44.643Z,82.68
2023-03-25T21:20:12.735Z,82.65
2023-03-25T21:22:45.475Z,82.91
2023-03-25T21:25:15.077Z,83.15
2023-03-25T21:27:45.579Z,82.91
2023-03-25T21:30:13.768Z,82.75
2023-03-25T21:32:42.157Z,82.82
2023-03-25T21:35:09.895Z,82.80
2023-03-25T21:37:39.985Z,83.14
2023-03-25T21:40:11.187Z,83.16
2023-03-25T21:42:41.620Z,83.37
2023-03-25T21:45:11.942Z,83.22
2023-03-25T21:47:39.606Z,83.67
2023-03-25T21:50:10.621Z,83.34
2023-03-25T21:52:51.686Z,83.76
2023-03-25T21:55:19.889Z,83.78
2023-03-25T21:57:47.945Z,83.77
2023-03-25T22:00:18.470Z,83.58
2023-03-25T22:02:47.475Z,83.34
2023-03-25T22:05:16.887Z,83.69
2023-03-25T22:07:43.871Z,83.81
2023-03-25T22:10:11.640Z,84.20
2023-03-25T22:12:38.757Z,83.82
2023-03-25T22:15:06.750Z,83.54
2023-03-25T22:17:33.830Z,83.91
2023-03-25T22:20:00.799Z,84.92
2023-03-25T22:22:27.824Z,84.66
2023-03-25T22:24:54.770Z,84.59
2023-03-25T22:27:22.164Z,85.02
2023-03-25T22:29:49.134Z,84.82
2023-03-25T22:32:16.637Z,85.20
2023-03-25T22:34:43.596Z,85.26
2023-03-25T22:37:10.552Z,85.61
2023-03-25T22:39:39.208Z,85.72
2023-03-25T22:42:06.929Z,86.77
2023-03-25T22:44:34.133Z,86.74
2023-03-25T22:47:01.315Z,86.68
2023-03-25T22:49:28.503Z,87.08
2023-03-25T22:51:55.968Z,86.81
2023-03-25T22:54:23.340Z,87.42
2023-03-25T22:56:50.617Z,87.05
2023-03-25T22:59:17.554Z,87.08
2023-03-25T23:01:44.747Z,87.13
2023-03-25T23:04:11.858Z,87.03
2023-03-25T23:06:39.160Z,87.09
2023-03-25T23:09:08.710Z,87.03
2023-03-25T23:11:37.767Z,86.93
2023-03-25T23:14:09.110Z,87.57
2023-03-25T23:16:36.756Z,87.31
2023-03-25T23:19:06.403Z,87.47
2023-03-25T23:21:34.489Z,87.12
2023-03-25T23:24:04.172Z,87.69
2023-03-25T23:26:39.564Z,87.50
2023-03-25T23:29:11.854Z,88.04
2023-03-25T23:31:42.647Z,88.17
2023-03-25T23:34:15.663Z,87.60
2023-03-25T23:36:45.641Z,87.92
2023-03-25T23:39:20.550Z,88.03
2023-03-25T23:41:47.518Z,87.96
2023-03-25T23:44:14.542Z,87.99
2023-03-25T23:46:42.323Z,88.51
2023-03-25T23:49:10.950Z,88.50
2023-03-25T23:51:40.972Z,88.64
2023-03-25T23:54:11.761Z,88.84
2023-03-25T23:56:40.591Z,88.87
2023-03-25T23:59:07.902Z,88.99
